Solidarnosc (vanuatu) — YJZC9 — position and weather

sailwx.info

Track history (hours):
 
Tides and Currents Weather Stations Pressure Air Temp Water Temp Dewpoint Dewpoint Depression Visibility Wind Speed Wind Dir Waves Ship Positions

Solidarnosc (vanuatu)

Last reported at 2014-Jul-16 12:31 UTC. Time now 2014-Jul-23 01:18 UTC.
Position N 37°21' W 031°52'.

Length 229 m; beam 32 m.

Type: Ship. MMSI: 576005000.

Date/timePositionNaut miles runAvg speedWind from/ knotsBaromVisibWave heightAir tempDewpointWater temp
2014-Jul-16 12:31N 37°21' W 031°52'1111.8
2014-Jul-16 11:33N 37°22' W 031°38'1211.8
2014-Jul-16 10:33N 37°22' W 031°23'1211.7
2014-Jul-16 09:33N 37°23' W 031°08'1513.6
2014-Jul-16 08:25N 37°24' W 030°49'1612.4
2014-Jul-16 07:08N 37°25' W 030°29'712.0
2014-Jul-16 06:32N 37°26' W 030°20'1212.2
2014-Jul-16 05:32N 37°26' W 030°04'1412.0
2014-Jul-16 04:22N 37°27' W 029°47'911.5
2014-Jul-16 03:33N 37°27' W 029°35'1212.1
2014-Jul-16 02:33N 37°27' W 029°20'1211.8
2014-Jul-16 01:33N 37°27' W 029°05'1211.9
2014-Jul-16 00:33N 37°27' W 028°50'1312.6
2014-Jul-15 23:33N 37°28' W 028°34'1212.2
2014-Jul-15 22:34N 37°28' W 028°19'1212.1
2014-Jul-15 21:33N 37°28' W 028°04'1212.1
2014-Jul-15 20:33N 37°28' W 027°48'1212.0
2014-Jul-15 19:31N 37°29' W 027°33'1112.0
2014-Jul-15 18:34N 37°29' W 027°18'1211.8
2014-Jul-15 17:33N 37°29' W 027°03'1212.1
2014-Jul-15 16:33N 37°29' W 026°48'1211.9
2014-Jul-15 15:34N 37°30' W 026°33'1212.1
2014-Jul-15 14:34N 37°30' W 026°18'1211.9
2014-Jul-15 13:33N 37°30' W 026°03'1212.4
2014-Jul-15 12:33N 37°30' W 025°47'1212.5
2014-Jul-15 11:33N 37°30' W 025°31'1312.7
2014-Jul-15 10:33N 37°30' W 025°15'1312.9
2014-Jul-15 09:33N 37°30' W 024°59'1413.8
2014-Jul-15 08:33N 37°30' W 024°42'1413.9
2014-Jul-15 07:33N 37°31' W 024°24'1313.1
2014-Jul-15 06:33N 37°31' W 024°08'1212.3
2014-Jul-15 05:33N 37°31' W 023°52'1312.6
2014-Jul-15 04:33N 37°30' W 023°36'39512.7
2014-Jul-13 21:33N 37°28' W 015°19'1212.0
2014-Jul-13 20:32N 37°19' W 015°08'1212.0
2014-Jul-13 19:32N 37°11' W 014°58'1211.9
2014-Jul-13 18:33N 37°02' W 014°48'13912.5
2014-Jul-13 07:24N 36°38' W 011°56'1012.2
2014-Jul-13 06:33N 36°37' W 011°43'1212.1
2014-Jul-13 05:33N 36°35' W 011°28'1212.1
2014-Jul-13 04:33N 36°34' W 011°13'1211.9
2014-Jul-13 03:33N 36°32' W 010°59'1212.1
2014-Jul-13 02:33N 36°30' W 010°44'1211.8
2014-Jul-13 01:33N 36°28' W 010°30'1111.4
2014-Jul-13 00:34N 36°26' W 010°16'1111.4
2014-Jul-12 23:33N 36°25' W 010°02'1111.4
2014-Jul-12 22:34N 36°22' W 009°48'1211.4
2014-Jul-12 21:33N 36°20' W 009°34'1211.8
2014-Jul-12 20:33N 36°18' W 009°19'1211.7
2014-Jul-12 19:33N 36°16' W 009°05'1211.9
2014-Jul-12 18:33N 36°15' W 008°50'1212.0
2014-Jul-12 17:33N 36°12' W 008°36'1212.0
2014-Jul-12 16:33N 36°10' W 008°21'1212.1
2014-Jul-12 15:34N 36°07' W 008°06'1212.2
2014-Jul-12 14:34N 36°05' W 007°52'1212.2
2014-Jul-12 13:33N 36°03' W 007°37'1212.2
2014-Jul-12 12:33N 36°01' W 007°22'1212.5
2014-Jul-12 11:33N 35°58' W 007°07'1712.3
2014-Jul-12 10:10N 35°58' W 006°46'712.2
2014-Jul-12 09:33N 35°58' W 006°37'1212.1
2014-Jul-12 08:33N 35°58' W 006°21'1212.1
2014-Jul-12 07:33N 35°57' W 006°06'1111.3
2014-Jul-12 06:33N 35°58' W 005°53'1110.6
2014-Jul-12 05:29N 35°58' W 005°39'910.1
2014-Jul-12 04:34N 35°60' W 005°27'  
2014-Jul-09 13:30N 37°19' E 005°11'1612.7
2014-Jul-09 12:16N 37°21' E 005°30'25212.1
2014-Jul-08 15:23N 37°33' E 010°47'1011.9
2014-Jul-08 14:33N 37°30' E 010°59'11911.9
2014-Jul-08 04:34N 36°54' E 013°22'1312.9
2014-Jul-08 03:34N 36°50' E 013°37'1313.2
2014-Jul-08 02:34N 36°46' E 013°53'1313.0
2014-Jul-08 01:34N 36°42' E 014°08'1313.1
2014-Jul-08 00:33N 36°39' E 014°24'1312.6
2014-Jul-07 23:34N 36°36' E 014°39'1211.9
2014-Jul-07 22:34N 36°31' E 014°53'1211.9
2014-Jul-07 21:34N 36°26' E 015°06'1 1.1
2014-Jul-07 20:33N 36°26' E 015°08'0 0.0
2014-Jul-07 19:33N 36°26' E 015°08'0 0.1
2014-Jul-07 18:30N 36°26' E 015°08'0 0.1
2014-Jul-07 17:33N 36°26' E 015°08'0 0.1
2014-Jul-07 16:33N 36°26' E 015°07'0 0.1
2014-Jul-07 15:33N 36°26' E 015°08'0 0.0
2014-Jul-07 14:33N 36°26' E 015°08'0 0.0
2014-Jul-07 13:27N 36°26' E 015°08'0 0.0
2014-Jul-07 12:33N 36°26' E 015°08'0 0.0
2014-Jul-07 11:21N 36°26' E 015°08'0 0.0
2014-Jul-07 10:18N 36°26' E 015°08'0 0.0
2014-Jul-07 09:24N 36°26' E 015°08'0 0.1
2014-Jul-07 07:33N 36°26' E 015°07'0 0.1
2014-Jul-07 06:33N 36°26' E 015°07'0 0.0
2014-Jul-07 05:33N 36°26' E 015°07'0 0.0
2014-Jul-07 04:30N 36°26' E 015°07'0 0.0
2014-Jul-07 03:33N 36°26' E 015°07'0 0.1
2014-Jul-07 02:30N 36°25' E 015°07'0 0.0
2014-Jul-07 01:30N 36°25' E 015°07'0 0.0
2014-Jul-07 00:33N 36°25' E 015°08'0 0.0
2014-Jul-06 23:30N 36°25' E 015°07'0 0.0
2014-Jul-06 22:33N 36°25' E 015°08'0 0.0
2014-Jul-06 21:33N 36°26' E 015°08'0 0.0
2014-Jul-06 20:33N 36°26' E 015°08'0 0.0
2014-Jul-06 19:33N 36°26' E 015°08'0 0.0
2014-Jul-06 18:30N 36°26' E 015°08'0 0.0
2014-Jul-06 17:33N 36°26' E 015°08'0 0.0
2014-Jul-06 16:33N 36°26' E 015°08'0 0.0
2014-Jul-06 15:33N 36°26' E 015°08'0 0.0
2014-Jul-06 14:30N 36°26' E 015°08'0 0.1
2014-Jul-06 13:18N 36°26' E 015°07'  
Track history (hours):
 
Tides and Currents Weather Stations Pressure Air Temp Water Temp Dewpoint Dewpoint Depression Visibility Wind Speed Wind Dir Waves Ship Positions

Solidarnosc (vanuatu)

Last reported at 2014-Jul-16 12:31 UTC. Time now 2014-Jul-23 01:18 UTC.
Position N 37°21' W 031°52'.

Length 229 m; beam 32 m.

Type: Ship. MMSI: 576005000.

Date/timePositionNaut miles runAvg speedWind from/ knotsBaromVisibWave heightAir tempDewpointWater temp
2014-Jul-16 12:31N 37°21' W 031°52'1111.8
2014-Jul-16 11:33N 37°22' W 031°38'1211.8
2014-Jul-16 10:33N 37°22' W 031°23'1211.7
2014-Jul-16 09:33N 37°23' W 031°08'1513.6
2014-Jul-16 08:25N 37°24' W 030°49'1612.4
2014-Jul-16 07:08N 37°25' W 030°29'712.0
2014-Jul-16 06:32N 37°26' W 030°20'1212.2
2014-Jul-16 05:32N 37°26' W 030°04'1412.0
2014-Jul-16 04:22N 37°27' W 029°47'911.5
2014-Jul-16 03:33N 37°27' W 029°35'1212.1
2014-Jul-16 02:33N 37°27' W 029°20'1211.8
2014-Jul-16 01:33N 37°27' W 029°05'1211.9
2014-Jul-16 00:33N 37°27' W 028°50'1312.6
2014-Jul-15 23:33N 37°28' W 028°34'1212.2
2014-Jul-15 22:34N 37°28' W 028°19'1212.1
2014-Jul-15 21:33N 37°28' W 028°04'1212.1
2014-Jul-15 20:33N 37°28' W 027°48'1212.0
2014-Jul-15 19:31N 37°29' W 027°33'1112.0
2014-Jul-15 18:34N 37°29' W 027°18'1211.8
2014-Jul-15 17:33N 37°29' W 027°03'1212.1
2014-Jul-15 16:33N 37°29' W 026°48'1211.9
2014-Jul-15 15:34N 37°30' W 026°33'1212.1
2014-Jul-15 14:34N 37°30' W 026°18'1211.9
2014-Jul-15 13:33N 37°30' W 026°03'1212.4
2014-Jul-15 12:33N 37°30' W 025°47'1212.5
2014-Jul-15 11:33N 37°30' W 025°31'1312.7
2014-Jul-15 10:33N 37°30' W 025°15'1312.9
2014-Jul-15 09:33N 37°30' W 024°59'1413.8
2014-Jul-15 08:33N 37°30' W 024°42'1413.9
2014-Jul-15 07:33N 37°31' W 024°24'1313.1
2014-Jul-15 06:33N 37°31' W 024°08'1212.3
2014-Jul-15 05:33N 37°31' W 023°52'1312.6
2014-Jul-15 04:33N 37°30' W 023°36'39512.7
2014-Jul-13 21:33N 37°28' W 015°19'1212.0
2014-Jul-13 20:32N 37°19' W 015°08'1212.0
2014-Jul-13 19:32N 37°11' W 014°58'1211.9
2014-Jul-13 18:33N 37°02' W 014°48'13912.5
2014-Jul-13 07:24N 36°38' W 011°56'1012.2
2014-Jul-13 06:33N 36°37' W 011°43'1212.1
2014-Jul-13 05:33N 36°35' W 011°28'1212.1
2014-Jul-13 04:33N 36°34' W 011°13'1211.9
2014-Jul-13 03:33N 36°32' W 010°59'1212.1
2014-Jul-13 02:33N 36°30' W 010°44'1211.8
2014-Jul-13 01:33N 36°28' W 010°30'1111.4
2014-Jul-13 00:34N 36°26' W 010°16'1111.4
2014-Jul-12 23:33N 36°25' W 010°02'1111.4
2014-Jul-12 22:34N 36°22' W 009°48'1211.4
2014-Jul-12 21:33N 36°20' W 009°34'1211.8
2014-Jul-12 20:33N 36°18' W 009°19'1211.7
2014-Jul-12 19:33N 36°16' W 009°05'1211.9
2014-Jul-12 18:33N 36°15' W 008°50'1212.0
2014-Jul-12 17:33N 36°12' W 008°36'1212.0
2014-Jul-12 16:33N 36°10' W 008°21'1212.1
2014-Jul-12 15:34N 36°07' W 008°06'1212.2
2014-Jul-12 14:34N 36°05' W 007°52'1212.2
2014-Jul-12 13:33N 36°03' W 007°37'1212.2
2014-Jul-12 12:33N 36°01' W 007°22'1212.5
2014-Jul-12 11:33N 35°58' W 007°07'1712.3
2014-Jul-12 10:10N 35°58' W 006°46'712.2
2014-Jul-12 09:33N 35°58' W 006°37'1212.1
2014-Jul-12 08:33N 35°58' W 006°21'1212.1
2014-Jul-12 07:33N 35°57' W 006°06'1111.3
2014-Jul-12 06:33N 35°58' W 005°53'1110.6
2014-Jul-12 05:29N 35°58' W 005°39'910.1
2014-Jul-12 04:34N 35°60' W 005°27'  
2014-Jul-09 13:30N 37°19' E 005°11'1612.7
2014-Jul-09 12:16N 37°21' E 005°30'25212.1
2014-Jul-08 15:23N 37°33' E 010°47'1011.9
2014-Jul-08 14:33N 37°30' E 010°59'11911.9
2014-Jul-08 04:34N 36°54' E 013°22'1312.9
2014-Jul-08 03:34N 36°50' E 013°37'1313.2
2014-Jul-08 02:34N 36°46' E 013°53'1313.0
2014-Jul-08 01:34N 36°42' E 014°08'1313.1
2014-Jul-08 00:33N 36°39' E 014°24'1312.6
2014-Jul-07 23:34N 36°36' E 014°39'1211.9
2014-Jul-07 22:34N 36°31' E 014°53'1211.9
2014-Jul-07 21:34N 36°26' E 015°06'1 1.1
2014-Jul-07 20:33N 36°26' E 015°08'0 0.0
2014-Jul-07 19:33N 36°26' E 015°08'0 0.1
2014-Jul-07 18:30N 36°26' E 015°08'0 0.1
2014-Jul-07 17:33N 36°26' E 015°08'0 0.1
2014-Jul-07 16:33N 36°26' E 015°07'0 0.1
2014-Jul-07 15:33N 36°26' E 015°08'0 0.0
2014-Jul-07 14:33N 36°26' E 015°08'0 0.0
2014-Jul-07 13:27N 36°26' E 015°08'0 0.0
2014-Jul-07 12:33N 36°26' E 015°08'0 0.0
2014-Jul-07 11:21N 36°26' E 015°08'0 0.0
2014-Jul-07 10:18N 36°26' E 015°08'0 0.0
2014-Jul-07 09:24N 36°26' E 015°08'0 0.1
2014-Jul-07 07:33N 36°26' E 015°07'0 0.1
2014-Jul-07 06:33N 36°26' E 015°07'0 0.0
2014-Jul-07 05:33N 36°26' E 015°07'0 0.0
2014-Jul-07 04:30N 36°26' E 015°07'0 0.0
2014-Jul-07 03:33N 36°26' E 015°07'0 0.1
2014-Jul-07 02:30N 36°25' E 015°07'0 0.0
2014-Jul-07 01:30N 36°25' E 015°07'0 0.0
2014-Jul-07 00:33N 36°25' E 015°08'0 0.0
2014-Jul-06 23:30N 36°25' E 015°07'0 0.0
2014-Jul-06 22:33N 36°25' E 015°08'0 0.0
2014-Jul-06 21:33N 36°26' E 015°08'0 0.0
2014-Jul-06 20:33N 36°26' E 015°08'0 0.0
2014-Jul-06 19:33N 36°26' E 015°08'0 0.0
2014-Jul-06 18:30N 36°26' E 015°08'0 0.0
2014-Jul-06 17:33N 36°26' E 015°08'0 0.0
2014-Jul-06 16:33N 36°26' E 015°08'0 0.0
2014-Jul-06 15:33N 36°26' E 015°08'0 0.0
2014-Jul-06 14:30N 36°26' E 015°08'0 0.1
2014-Jul-06 13:18N 36°26' E 015°07'  

Dump ship's entire track history